sensor_id;sensor_type;location;lat;lon;timestamp;temperature;humidity
16505;HTU21D;8365;51.030;4.696;2023-06-24T00:00:08;20.89;104.37
16505;HTU21D;8365;51.030;4.696;2023-06-24T00:02:42;20.87;104.37
16505;HTU21D;8365;51.030;4.696;2023-06-24T00:05:15;20.84;104.31
16505;HTU21D;8365;51.030;4.696;2023-06-24T00:07:46;20.80;104.41
16505;HTU21D;8365;51.030;4.696;2023-06-24T00:10:17;20.71;104.66
16505;HTU21D;8365;51.030;4.696;2023-06-24T00:12:47;20.68;104.79
16505;HTU21D;8365;51.030;4.696;2023-06-24T00:15:18;20.64;105.29
16505;HTU21D;8365;51.030;4.696;2023-06-24T00:17:49;20.57;105.76
16505;HTU21D;8365;51.030;4.696;2023-06-24T00:20:20;20.50;106.63
16505;HTU21D;8365;51.030;4.696;2023-06-24T00:22:53;20.47;107.29
16505;HTU21D;8365;51.030;4.696;2023-06-24T00:25:23;20.41;107.52
16505;HTU21D;8365;51.030;4.696;2023-06-24T00:27:54;20.36;108.13
16505;HTU21D;8365;51.030;4.696;2023-06-24T00:30:26;20.27;108.60
16505;HTU21D;8365;51.030;4.696;2023-06-24T00:32:57;20.25;108.95
16505;HTU21D;8365;51.030;4.696;2023-06-24T00:35:29;20.24;109.38
16505;HTU21D;8365;51.030;4.696;2023-06-24T00:38:00;20.18;110.14
16505;HTU21D;8365;51.030;4.696;2023-06-24T00:40:30;20.13;110.62
16505;HTU21D;8365;51.030;4.696;2023-06-24T00:43:07;19.91;112.86
16505;HTU21D;8365;51.030;4.696;2023-06-24T00:45:38;19.92;112.80
16505;HTU21D;8365;51.030;4.696;2023-06-24T00:48:09;19.98;112.18
16505;HTU21D;8365;51.030;4.696;2023-06-24T00:50:39;19.94;112.40
16505;HTU21D;8365;51.030;4.696;2023-06-24T00:53:12;19.92;112.55
16505;HTU21D;8365;51.030;4.696;2023-06-24T00:55:45;19.80;113.07
16505;HTU21D;8365;51.030;4.696;2023-06-24T00:58:16;19.84;113.03
16505;HTU21D;8365;51.030;4.696;2023-06-24T01:00:51;19.83;112.64
16505;HTU21D;8365;51.030;4.696;2023-06-24T01:03:27;19.75;113.57
16505;HTU21D;8365;51.030;4.696;2023-06-24T01:05:59;19.76;113.85
16505;HTU21D;8365;51.030;4.696;2023-06-24T01:08:29;19.69;114.19
16505;HTU21D;8365;51.030;4.696;2023-06-24T01:11:00;19.68;114.09
16505;HTU21D;8365;51.030;4.696;2023-06-24T01:13:31;19.67;114.82
16505;HTU21D;8365;51.030;4.696;2023-06-24T01:16:07;19.59;115.61
16505;HTU21D;8365;51.030;4.696;2023-06-24T01:18:44;19.51;115.82
16505;HTU21D;8365;51.030;4.696;2023-06-24T01:33:16;19.38;114.48
16505;HTU21D;8365;51.030;4.696;2023-06-24T01:35:47;19.37;114.79
16505;HTU21D;8365;51.030;4.696;2023-06-24T01:38:27;19.32;115.35
16505;HTU21D;8365;51.030;4.696;2023-06-24T01:41:03;19.30;115.22
16505;HTU21D;8365;51.030;4.696;2023-06-24T01:43:37;19.25;115.64
16505;HTU21D;8365;51.030;4.696;2023-06-24T01:46:11;19.25;116.25
16505;HTU21D;8365;51.030;4.696;2023-06-24T01:48:43;19.18;116.43
16505;HTU21D;8365;51.030;4.696;2023-06-24T01:51:17;19.10;118.05
16505;HTU21D;8365;51.030;4.696;2023-06-24T01:53:52;19.13;117.71
16505;HTU21D;8365;51.030;4.696;2023-06-24T01:56:26;19.12;117.36
16505;HTU21D;8365;51.030;4.696;2023-06-24T01:59:00;19.09;117.38
16505;HTU21D;8365;51.030;4.696;2023-06-24T02:01:33;19.02;118.19
16505;HTU21D;8365;51.030;4.696;2023-06-24T02:04:08;18.96;118.99
16505;HTU21D;8365;51.030;4.696;2023-06-24T02:06:43;19.01;117.92
16505;HTU21D;8365;51.030;4.696;2023-06-24T02:09:17;18.98;117.58
16505;HTU21D;8365;51.030;4.696;2023-06-24T02:11:50;18.97;116.81
16505;HTU21D;8365;51.030;4.696;2023-06-24T02:14:20;18.85;116.82
16505;HTU21D;8365;51.030;4.696;2023-06-24T02:16:51;18.79;117.12
16505;HTU21D;8365;51.030;4.696;2023-06-24T02:19:30;18.69;117.76
16505;HTU21D;8365;51.030;4.696;2023-06-24T02:22:01;18.51;118.99
16505;HTU21D;8365;51.030;4.696;2023-06-24T02:24:32;18.44;118.99
16505;HTU21D;8365;51.030;4.696;2023-06-24T02:27:03;18.32;118.99
16505;HTU21D;8365;51.030;4.696;2023-06-24T02:29:35;18.13;118.99
16505;HTU21D;8365;51.030;4.696;2023-06-24T02:32:06;18.21;118.99
16505;HTU21D;8365;51.030;4.696;2023-06-24T02:34:37;18.15;118.99
16505;HTU21D;8365;51.030;4.696;2023-06-24T02:37:09;18.15;118.99
16505;HTU21D;8365;51.030;4.696;2023-06-24T02:39:39;18.09;118.99
16505;HTU21D;8365;51.030;4.696;2023-06-24T02:42:16;18.13;118.99
16505;HTU21D;8365;51.030;4.696;2023-06-24T02:44:47;18.09;118.99
16505;HTU21D;8365;51.030;4.696;2023-06-24T02:47:18;18.09;118.99
16505;HTU21D;8365;51.030;4.696;2023-06-24T02:49:49;18.05;118.99
16505;HTU21D;8365;51.030;4.696;2023-06-24T02:52:21;17.93;118.99
16505;HTU21D;8365;51.030;4.696;2023-06-24T02:54:54;17.91;118.99
16505;HTU21D;8365;51.030;4.696;2023-06-24T02:57:26;17.87;118.99
16505;HTU21D;8365;51.030;4.696;2023-06-24T02:59:56;17.88;118.99
16505;HTU21D;8365;51.030;4.696;2023-06-24T03:02:30;17.82;118.99
16505;HTU21D;8365;51.030;4.696;2023-06-24T03:05:00;17.84;118.99
16505;HTU21D;8365;51.030;4.696;2023-06-24T03:07:32;17.82;118.99
16505;HTU21D;8365;51.030;4.696;2023-06-24T03:10:05;17.76;118.99
16505;HTU21D;8365;51.030;4.696;2023-06-24T03:12:38;17.76;118.99
16505;HTU21D;8365;51.030;4.696;2023-06-24T03:15:09;17.68;118.99
16505;HTU21D;8365;51.030;4.696;2023-06-24T03:17:42;17.66;118.99
16505;HTU21D;8365;51.030;4.696;2023-06-24T03:20:12;17.65;118.99
16505;HTU21D;8365;51.030;4.696;2023-06-24T03:22:43;17.66;118.99
16505;HTU21D;8365;51.030;4.696;2023-06-24T03:25:16;17.65;118.99
16505;HTU21D;8365;51.030;4.696;2023-06-24T03:27:48;17.67;118.99
16505;HTU21D;8365;51.030;4.696;2023-06-24T03:30:19;17.67;118.99
16505;HTU21D;8365;51.030;4.696;2023-06-24T03:32:49;17.68;118.99
16505;HTU21D;8365;51.030;4.696;2023-06-24T03:35:20;17.62;118.99
16505;HTU21D;8365;51.030;4.696;2023-06-24T03:37:50;17.65;118.99
16505;HTU21D;8365;51.030;4.696;2023-06-24T03:40:21;17.65;118.99
16505;HTU21D;8365;51.030;4.696;2023-06-24T03:42:52;17.67;118.99
16505;HTU21D;8365;51.030;4.696;2023-06-24T03:45:24;17.64;118.99
16505;HTU21D;8365;51.030;4.696;2023-06-24T03:47:55;17.65;118.99
16505;HTU21D;8365;51.030;4.696;2023-06-24T03:50:25;17.63;118.99
16505;HTU21D;8365;51.030;4.696;2023-06-24T03:52:58;17.62;118.99
16505;HTU21D;8365;51.030;4.696;2023-06-24T03:55:28;17.58;118.99
16505;HTU21D;8365;51.030;4.696;2023-06-24T03:57:59;17.44;118.99
16505;HTU21D;8365;51.030;4.696;2023-06-24T04:00:29;17.46;118.99
16505;HTU21D;8365;51.030;4.696;2023-06-24T04:03:00;17.37;118.99
16505;HTU21D;8365;51.030;4.696;2023-06-24T04:05:31;17.31;118.99
16505;HTU21D;8365;51.030;4.696;2023-06-24T04:08:01;17.35;118.99
16505;HTU21D;8365;51.030;4.696;2023-06-24T04:10:36;17.44;118.99
16505;HTU21D;8365;51.030;4.696;2023-06-24T04:13:06;17.46;118.99
16505;HTU21D;8365;51.030;4.696;2023-06-24T04:15:39;17.48;118.99
16505;HTU21D;8365;51.030;4.696;2023-06-24T04:18:09;17.52;118.99
16505;HTU21D;8365;51.030;4.696;2023-06-24T04:20:40;17.55;118.99
16505;HTU21D;8365;51.030;4.696;2023-06-24T04:23:10;17.62;118.99
16505;HTU21D;8365;51.030;4.696;2023-06-24T04:25:41;17.63;118.99
16505;HTU21D;8365;51.030;4.696;2023-06-24T04:28:12;17.61;118.99
16505;HTU21D;8365;51.030;4.696;2023-06-24T04:30:43;17.43;118.99
16505;HTU21D;8365;51.030;4.696;2023-06-24T04:33:13;17.46;118.99
16505;HTU21D;8365;51.030;4.696;2023-06-24T04:35:44;17.46;118.99
16505;HTU21D;8365;51.030;4.696;2023-06-24T04:38:14;17.52;118.99
16505;HTU21D;8365;51.030;4.696;2023-06-24T04:40:48;17.52;118.99
16505;HTU21D;8365;51.030;4.696;2023-06-24T04:43:19;17.75;118.99
16505;HTU21D;8365;51.030;4.696;2023-06-24T04:45:49;17.85;118.99
16505;HTU21D;8365;51.030;4.696;2023-06-24T04:48:20;17.98;118.99
16505;HTU21D;8365;51.030;4.696;2023-06-24T04:50:50;18.04;118.99
16505;HTU21D;8365;51.030;4.696;2023-06-24T04:53:21;18.17;118.99
16505;HTU21D;8365;51.030;4.696;2023-06-24T04:55:51;18.24;118.99
16505;HTU21D;8365;51.030;4.696;2023-06-24T04:58:22;18.33;118.99
16505;HTU21D;8365;51.030;4.696;2023-06-24T05:00:52;18.40;118.99
16505;HTU21D;8365;51.030;4.696;2023-06-24T05:03:24;18.37;118.99
16505;HTU21D;8365;51.030;4.696;2023-06-24T05:05:54;18.38;118.99
16505;HTU21D;8365;51.030;4.696;2023-06-24T05:08:25;18.35;118.02
16505;HTU21D;8365;51.030;4.696;2023-06-24T05:10:55;18.51;116.86
16505;HTU21D;8365;51.030;4.696;2023-06-24T05:13:27;18.46;116.94
16505;HTU21D;8365;51.030;4.696;2023-06-24T05:15:58;18.51;115.60
16505;HTU21D;8365;51.030;4.696;2023-06-24T05:18:28;18.59;114.28
16505;HTU21D;8365;51.030;4.696;2023-06-24T05:20:58;18.61;113.31
16505;HTU21D;8365;51.030;4.696;2023-06-24T05:23:29;18.56;112.13
16505;HTU21D;8365;51.030;4.696;2023-06-24T05:25:59;18.59;111.58
16505;HTU21D;8365;51.030;4.696;2023-06-24T05:28:34;18.76;111.52
16505;HTU21D;8365;51.030;4.696;2023-06-24T05:31:05;18.76;111.48
16505;HTU21D;8365;51.030;4.696;2023-06-24T05:33:35;18.80;110.74
16505;HTU21D;8365;51.030;4.696;2023-06-24T05:36:06;18.88;111.61
16505;HTU21D;8365;51.030;4.696;2023-06-24T05:38:39;19.01;109.88
16505;HTU21D;8365;51.030;4.696;2023-06-24T05:41:12;19.03;109.90
16505;HTU21D;8365;51.030;4.696;2023-06-24T05:43:45;18.99;109.91
16505;HTU21D;8365;51.030;4.696;2023-06-24T05:46:16;19.24;108.95
16505;HTU21D;8365;51.030;4.696;2023-06-24T05:48:48;19.37;108.17
16505;HTU21D;8365;51.030;4.696;2023-06-24T05:51:19;19.30;108.41
16505;HTU21D;8365;51.030;4.696;2023-06-24T05:53:49;19.41;107.66
16505;HTU21D;8365;51.030;4.696;2023-06-24T05:56:22;19.39;107.83
16505;HTU21D;8365;51.030;4.696;2023-06-24T05:58:53;19.40;106.62
16505;HTU21D;8365;51.030;4.696;2023-06-24T06:01:23;19.20;107.80
16505;HTU21D;8365;51.030;4.696;2023-06-24T06:03:54;19.30;109.05
16505;HTU21D;8365;51.030;4.696;2023-06-24T06:06:27;19.33;106.64
16505;HTU21D;8365;51.030;4.696;2023-06-24T06:08:59;19.48;108.76
16505;HTU21D;8365;51.030;4.696;2023-06-24T06:11:30;19.47;106.81
16505;HTU21D;8365;51.030;4.696;2023-06-24T06:14:00;19.50;106.03
16505;HTU21D;8365;51.030;4.696;2023-06-24T06:16:31;19.53;107.91
16505;HTU21D;8365;51.030;4.696;2023-06-24T06:19:01;19.41;106.63
16505;HTU21D;8365;51.030;4.696;2023-06-24T06:21:32;19.37;106.79
16505;HTU21D;8365;51.030;4.696;2023-06-24T06:24:02;19.57;105.02
16505;HTU21D;8365;51.030;4.696;2023-06-24T06:26:33;19.70;106.80
16505;HTU21D;8365;51.030;4.696;2023-06-24T06:29:03;19.73;104.33
16505;HTU21D;8365;51.030;4.696;2023-06-24T06:31:34;19.91;104.93
16505;HTU21D;8365;51.030;4.696;2023-06-24T06:34:04;19.96;104.42
16505;HTU21D;8365;51.030;4.696;2023-06-24T06:36:35;19.87;105.15
16505;HTU21D;8365;51.030;4.696;2023-06-24T06:39:06;20.03;104.69
16505;HTU21D;8365;51.030;4.696;2023-06-24T06:41:36;20.15;104.02
16505;HTU21D;8365;51.030;4.696;2023-06-24T06:44:07;20.24;104.05
16505;HTU21D;8365;51.030;4.696;2023-06-24T06:46:37;20.28;102.26
16505;HTU21D;8365;51.030;4.696;2023-06-24T06:49:07;20.27;101.85
16505;HTU21D;8365;51.030;4.696;2023-06-24T06:51:38;20.27;103.21
16505;HTU21D;8365;51.030;4.696;2023-06-24T06:54:08;20.49;102.76
16505;HTU21D;8365;51.030;4.696;2023-06-24T06:56:39;20.62;101.40
16505;HTU21D;8365;51.030;4.696;2023-06-24T06:59:10;20.51;102.76
16505;HTU21D;8365;51.030;4.696;2023-06-24T07:01:40;20.48;101.44
16505;HTU21D;8365;51.030;4.696;2023-06-24T07:04:11;20.74;101.11
16505;HTU21D;8365;51.030;4.696;2023-06-24T07:06:41;20.84;101.05
16505;HTU21D;8365;51.030;4.696;2023-06-24T07:09:12;20.68;100.63
16505;HTU21D;8365;51.030;4.696;2023-06-24T07:11:43;20.84;101.60
16505;HTU21D;8365;51.030;4.696;2023-06-24T07:14:13;20.92;102.41
16505;HTU21D;8365;51.030;4.696;2023-06-24T07:16:43;20.89;99.70
16505;HTU21D;8365;51.030;4.696;2023-06-24T07:19:14;20.98;100.52
16505;HTU21D;8365;51.030;4.696;2023-06-24T07:21:44;21.04;97.69
16505;HTU21D;8365;51.030;4.696;2023-06-24T07:24:15;21.19;98.13
16505;HTU21D;8365;51.030;4.696;2023-06-24T07:26:45;21.38;98.52
16505;HTU21D;8365;51.030;4.696;2023-06-24T07:29:16;21.50;97.88
16505;HTU21D;8365;51.030;4.696;2023-06-24T07:31:46;21.40;96.36
16505;HTU21D;8365;51.030;4.696;2023-06-24T07:34:19;21.43;94.75
16505;HTU21D;8365;51.030;4.696;2023-06-24T07:36:49;21.28;95.65
16505;HTU21D;8365;51.030;4.696;2023-06-24T07:39:21;21.32;95.25
16505;HTU21D;8365;51.030;4.696;2023-06-24T07:41:51;21.51;95.20
16505;HTU21D;8365;51.030;4.696;2023-06-24T07:44:21;21.60;94.33
16505;HTU21D;8365;51.030;4.696;2023-06-24T07:46:52;21.61;93.57
16505;HTU21D;8365;51.030;4.696;2023-06-24T07:49:22;21.93;92.22
16505;HTU21D;8365;51.030;4.696;2023-06-24T07:51:53;22.05;94.37
16505;HTU21D;8365;51.030;4.696;2023-06-24T07:54:23;22.02;90.72
16505;HTU21D;8365;51.030;4.696;2023-06-24T07:56:54;22.08;90.69
16505;HTU21D;8365;51.030;4.696;2023-06-24T07:59:24;22.22;90.86
16505;HTU21D;8365;51.030;4.696;2023-06-24T08:01:55;22.22;91.08
16505;HTU21D;8365;51.030;4.696;2023-06-24T08:04:26;22.17;89.82
16505;HTU21D;8365;51.030;4.696;2023-06-24T08:06:56;22.47;89.46
16505;HTU21D;8365;51.030;4.696;2023-06-24T08:09:27;22.43;89.31
16505;HTU21D;8365;51.030;4.696;2023-06-24T08:11:59;22.50;88.15
16505;HTU21D;8365;51.030;4.696;2023-06-24T08:14:30;22.69;86.77
16505;HTU21D;8365;51.030;4.696;2023-06-24T08:17:01;22.83;88.60
16505;HTU21D;8365;51.030;4.696;2023-06-24T08:19:31;22.83;88.70
16505;HTU21D;8365;51.030;4.696;2023-06-24T08:22:02;22.93;88.96
16505;HTU21D;8365;51.030;4.696;2023-06-24T08:24:32;23.01;83.08
16505;HTU21D;8365;51.030;4.696;2023-06-24T08:27:03;22.97;86.06
16505;HTU21D;8365;51.030;4.696;2023-06-24T08:29:34;22.92;82.87
16505;HTU21D;8365;51.030;4.696;2023-06-24T08:32:07;23.10;83.49
16505;HTU21D;8365;51.030;4.696;2023-06-24T08:34:37;23.17;84.02
16505;HTU21D;8365;51.030;4.696;2023-06-24T08:37:08;23.24;81.52
16505;HTU21D;8365;51.030;4.696;2023-06-24T08:39:38;23.30;82.71
16505;HTU21D;8365;51.030;4.696;2023-06-24T08:42:09;23.28;81.67
16505;HTU21D;8365;51.030;4.696;2023-06-24T08:44:39;23.28;80.84
16505;HTU21D;8365;51.030;4.696;2023-06-24T08:47:10;23.43;78.77
16505;HTU21D;8365;51.030;4.696;2023-06-24T08:49:52;23.46;71.38
16505;HTU21D;8365;51.030;4.696;2023-06-24T08:52:29;23.49;70.65
16505;HTU21D;8365;51.030;4.696;2023-06-24T08:55:01;23.51;70.41
16505;HTU21D;8365;51.030;4.696;2023-06-24T08:57:31;23.69;68.78
16505;HTU21D;8365;51.030;4.696;2023-06-24T09:00:02;23.76;68.96
16505;HTU21D;8365;51.030;4.696;2023-06-24T09:02:33;23.90;67.03
16505;HTU21D;8365;51.030;4.696;2023-06-24T09:05:06;24.13;68.46
16505;HTU21D;8365;51.030;4.696;2023-06-24T09:07:39;24.24;66.24
16505;HTU21D;8365;51.030;4.696;2023-06-24T09:10:29;24.25;67.04
16505;HTU21D;8365;51.030;4.696;2023-06-24T09:13:04;23.91;64.03
16505;HTU21D;8365;51.030;4.696;2023-06-24T09:15:38;24.04;64.38
16505;HTU21D;8365;51.030;4.696;2023-06-24T09:18:09;24.25;66.11
16505;HTU21D;8365;51.030;4.696;2023-06-24T09:20:42;24.41;60.44
16505;HTU21D;8365;51.030;4.696;2023-06-24T09:23:16;24.45;61.71
16505;HTU21D;8365;51.030;4.696;2023-06-24T09:25:58;24.72;62.73
16505;HTU21D;8365;51.030;4.696;2023-06-24T09:28:28;24.99;58.70
16505;HTU21D;8365;51.030;4.696;2023-06-24T09:31:09;24.93;57.39
16505;HTU21D;8365;51.030;4.696;2023-06-24T09:33:40;24.70;56.37
16505;HTU21D;8365;51.030;4.696;2023-06-24T09:36:14;24.95;58.00
16505;HTU21D;8365;51.030;4.696;2023-06-24T09:38:45;25.08;54.49
16505;HTU21D;8365;51.030;4.696;2023-06-24T09:41:17;24.95;54.66
16505;HTU21D;8365;51.030;4.696;2023-06-24T09:43:47;25.29;54.77
16505;HTU21D;8365;51.030;4.696;2023-06-24T09:46:18;25.29;54.49
16505;HTU21D;8365;51.030;4.696;2023-06-24T09:48:48;25.24;52.56
16505;HTU21D;8365;51.030;4.696;2023-06-24T09:51:19;25.47;52.57
16505;HTU21D;8365;51.030;4.696;2023-06-24T09:53:52;25.68;55.26
16505;HTU21D;8365;51.030;4.696;2023-06-24T09:56:24;25.74;51.96
16505;HTU21D;8365;51.030;4.696;2023-06-24T09:58:55;25.68;50.21
16505;HTU21D;8365;51.030;4.696;2023-06-24T10:01:26;25.71;50.18
16505;HTU21D;8365;51.030;4.696;2023-06-24T10:04:00;26.08;51.19
16505;HTU21D;8365;51.030;4.696;2023-06-24T10:06:33;26.22;50.75
16505;HTU21D;8365;51.030;4.696;2023-06-24T10:09:04;26.09;45.41
16505;HTU21D;8365;51.030;4.696;2023-06-24T10:11:35;26.33;48.50
16505;HTU21D;8365;51.030;4.696;2023-06-24T10:14:06;26.39;46.08
16505;HTU21D;8365;51.030;4.696;2023-06-24T10:16:38;26.94;47.13
16505;HTU21D;8365;51.030;4.696;2023-06-24T10:19:10;26.73;45.00
16505;HTU21D;8365;51.030;4.696;2023-06-24T10:21:51;27.60;42.48
16505;HTU21D;8365;51.030;4.696;2023-06-24T10:27:03;28.31;39.32
16505;HTU21D;8365;51.030;4.696;2023-06-24T10:29:37;29.57;36.20
16505;HTU21D;8365;51.030;4.696;2023-06-24T10:32:08;30.37;36.51
16505;HTU21D;8365;51.030;4.696;2023-06-24T10:37:33;31.43;34.44
16505;HTU21D;8365;51.030;4.696;2023-06-24T10:40:04;31.10;33.96
16505;HTU21D;8365;51.030;4.696;2023-06-24T10:42:39;32.62;31.51
16505;HTU21D;8365;51.030;4.696;2023-06-24T10:45:14;32.83;31.85
16505;HTU21D;8365;51.030;4.696;2023-06-24T10:47:46;32.74;30.48
16505;HTU21D;8365;51.030;4.696;2023-06-24T10:50:19;33.04;32.22
16505;HTU21D;8365;51.030;4.696;2023-06-24T10:52:51;32.61;29.56
16505;HTU21D;8365;51.030;4.696;2023-06-24T10:55:26;33.55;28.13
16505;HTU21D;8365;51.030;4.696;2023-06-24T10:58:10;34.39;28.15
16505;HTU21D;8365;51.030;4.696;2023-06-24T11:00:43;34.95;27.56
16505;HTU21D;8365;51.030;4.696;2023-06-24T11:03:15;33.59;27.75
16505;HTU21D;8365;51.030;4.696;2023-06-24T11:05:48;34.06;30.29
16505;HTU21D;8365;51.030;4.696;2023-06-24T11:08:20;33.30;28.45
16505;HTU21D;8365;51.030;4.696;2023-06-24T11:10:50;35.39;26.77
16505;HTU21D;8365;51.030;4.696;2023-06-24T11:13:21;35.86;26.59
16505;HTU21D;8365;51.030;4.696;2023-06-24T11:15:51;34.35;27.84
16505;HTU21D;8365;51.030;4.696;2023-06-24T11:18:23;35.93;26.98
16505;HTU21D;8365;51.030;4.696;2023-06-24T11:20:54;35.36;27.41
16505;HTU21D;8365;51.030;4.696;2023-06-24T11:23:28;35.05;27.56
16505;HTU21D;8365;51.030;4.696;2023-06-24T11:26:02;35.21;27.33
16505;HTU21D;8365;51.030;4.696;2023-06-24T11:28:33;33.95;29.99
16505;HTU21D;8365;51.030;4.696;2023-06-24T11:31:07;35.12;29.77
16505;HTU21D;8365;51.030;4.696;2023-06-24T11:33:40;34.55;28.48
16505;HTU21D;8365;51.030;4.696;2023-06-24T11:36:10;34.93;28.65
16505;HTU21D;8365;51.030;4.696;2023-06-24T11:38:41;35.67;27.33
16505;HTU21D;8365;51.030;4.696;2023-06-24T11:41:12;35.26;28.49
16505;HTU21D;8365;51.030;4.696;2023-06-24T11:43:46;36.92;26.90
16505;HTU21D;8365;51.030;4.696;2023-06-24T11:46:26;37.50;25.64
16505;HTU21D;8365;51.030;4.696;2023-06-24T11:49:07;37.72;24.77
16505;HTU21D;8365;51.030;4.696;2023-06-24T11:51:46;37.47;22.93
16505;HTU21D;8365;51.030;4.696;2023-06-24T11:54:20;37.75;25.20
16505;HTU21D;8365;51.030;4.696;2023-06-24T11:56:51;37.36;24.81
16505;HTU21D;8365;51.030;4.696;2023-06-24T11:59:23;37.85;25.75
16505;HTU21D;8365;51.030;4.696;2023-06-24T12:01:58;36.90;24.67
16505;HTU21D;8365;51.030;4.696;2023-06-24T12:04:31;36.86;24.07
16505;HTU21D;8365;51.030;4.696;2023-06-24T12:07:01;36.39;25.97
16505;HTU21D;8365;51.030;4.696;2023-06-24T12:09:32;36.48;26.26
16505;HTU21D;8365;51.030;4.696;2023-06-24T12:12:03;36.83;26.57
16505;HTU21D;8365;51.030;4.696;2023-06-24T12:14:33;36.57;26.35
16505;HTU21D;8365;51.030;4.696;2023-06-24T12:17:04;37.03;24.94
16505;HTU21D;8365;51.030;4.696;2023-06-24T12:19:34;37.87;22.93
16505;HTU21D;8365;51.030;4.696;2023-06-24T12:22:05;37.25;22.40
16505;HTU21D;8365;51.030;4.696;2023-06-24T12:24:35;37.48;25.66
16505;HTU21D;8365;51.030;4.696;2023-06-24T12:27:05;37.88;24.24
16505;HTU21D;8365;51.030;4.696;2023-06-24T12:29:36;37.19;24.58
16505;HTU21D;8365;51.030;4.696;2023-06-24T12:32:07;37.12;22.34
16505;HTU21D;8365;51.030;4.696;2023-06-24T12:34:37;36.83;23.05
16505;HTU21D;8365;51.030;4.696;2023-06-24T12:37:08;37.15;23.91
16505;HTU21D;8365;51.030;4.696;2023-06-24T12:39:38;36.82;23.59
16505;HTU21D;8365;51.030;4.696;2023-06-24T12:42:09;37.74;21.81
16505;HTU21D;8365;51.030;4.696;2023-06-24T12:44:39;38.48;22.38
16505;HTU21D;8365;51.030;4.696;2023-06-24T12:47:10;38.16;22.50
16505;HTU21D;8365;51.030;4.696;2023-06-24T12:49:40;38.69;22.28
16505;HTU21D;8365;51.030;4.696;2023-06-24T12:52:13;39.65;21.94
16505;HTU21D;8365;51.030;4.696;2023-06-24T12:54:44;38.12;21.57
16505;HTU21D;8365;51.030;4.696;2023-06-24T12:57:17;36.54;23.66
16505;HTU21D;8365;51.030;4.696;2023-06-24T12:59:48;37.03;22.37
16505;HTU21D;8365;51.030;4.696;2023-06-24T13:02:18;36.93;23.41
16505;HTU21D;8365;51.030;4.696;2023-06-24T13:04:51;36.30;23.80
16505;HTU21D;8365;51.030;4.696;2023-06-24T13:07:22;37.70;21.13
16505;HTU21D;8365;51.030;4.696;2023-06-24T13:09:52;37.96;20.19
16505;HTU21D;8365;51.030;4.696;2023-06-24T13:12:22;39.00;19.73
16505;HTU21D;8365;51.030;4.696;2023-06-24T13:14:53;39.74;18.38
16505;HTU21D;8365;51.030;4.696;2023-06-24T13:17:23;39.76;19.62
16505;HTU21D;8365;51.030;4.696;2023-06-24T13:19:54;40.37;18.87
16505;HTU21D;8365;51.030;4.696;2023-06-24T13:22:25;40.57;19.97
16505;HTU21D;8365;51.030;4.696;2023-06-24T13:24:55;38.65;21.49
16505;HTU21D;8365;51.030;4.696;2023-06-24T13:27:26;37.99;21.66
16505;HTU21D;8365;51.030;4.696;2023-06-24T13:29:56;38.18;21.34
16505;HTU21D;8365;51.030;4.696;2023-06-24T13:32:27;38.98;21.59
16505;HTU21D;8365;51.030;4.696;2023-06-24T13:34:57;39.91;20.28
16505;HTU21D;8365;51.030;4.696;2023-06-24T13:37:28;39.86;21.39
16505;HTU21D;8365;51.030;4.696;2023-06-24T13:39:58;39.37;21.70
16505;HTU21D;8365;51.030;4.696;2023-06-24T13:42:28;40.07;22.11
16505;HTU21D;8365;51.030;4.696;2023-06-24T13:44:59;40.35;20.47
16505;HTU21D;8365;51.030;4.696;2023-06-24T13:47:29;39.79;20.35
16505;HTU21D;8365;51.030;4.696;2023-06-24T13:50:00;40.82;20.05
16505;HTU21D;8365;51.030;4.696;2023-06-24T13:52:30;39.89;18.76
16505;HTU21D;8365;51.030;4.696;2023-06-24T13:55:01;38.21;22.54
16505;HTU21D;8365;51.030;4.696;2023-06-24T13:57:31;38.90;20.29
16505;HTU21D;8365;51.030;4.696;2023-06-24T14:00:02;38.49;20.32
16505;HTU21D;8365;51.030;4.696;2023-06-24T14:02:33;39.15;19.96
16505;HTU21D;8365;51.030;4.696;2023-06-24T14:05:04;38.03;21.79
16505;HTU21D;8365;51.030;4.696;2023-06-24T14:07:35;38.58;22.86
16505;HTU21D;8365;51.030;4.696;2023-06-24T14:10:06;39.15;18.96
16505;HTU21D;8365;51.030;4.696;2023-06-24T14:12:39;38.70;19.15
16505;HTU21D;8365;51.030;4.696;2023-06-24T14:15:12;39.22;19.24
16505;HTU21D;8365;51.030;4.696;2023-06-24T14:17:45;39.39;18.61
16505;HTU21D;8365;51.030;4.696;2023-06-24T14:20:15;38.21;20.48
16505;HTU21D;8365;51.030;4.696;2023-06-24T14:22:46;38.85;19.99
16505;HTU21D;8365;51.030;4.696;2023-06-24T14:25:17;37.01;22.56
16505;HTU21D;8365;51.030;4.696;2023-06-24T14:27:47;37.72;22.17
16505;HTU21D;8365;51.030;4.696;2023-06-24T14:30:18;38.10;21.47
16505;HTU21D;8365;51.030;4.696;2023-06-24T14:32:48;37.82;22.76
16505;HTU21D;8365;51.030;4.696;2023-06-24T14:35:19;39.05;21.85
16505;HTU21D;8365;51.030;4.696;2023-06-24T14:37:50;39.78;21.69
16505;HTU21D;8365;51.030;4.696;2023-06-24T14:40:23;40.57;20.07
16505;HTU21D;8365;51.030;4.696;2023-06-24T14:42:56;40.43;20.30
16505;HTU21D;8365;51.030;4.696;2023-06-24T14:45:26;40.62;21.53
16505;HTU21D;8365;51.030;4.696;2023-06-24T14:47:57;40.70;19.26
16505;HTU21D;8365;51.030;4.696;2023-06-24T14:50:28;41.03;18.75
16505;HTU21D;8365;51.030;4.696;2023-06-24T14:52:58;41.48;17.59
16505;HTU21D;8365;51.030;4.696;2023-06-24T14:55:28;41.80;18.40
16505;HTU21D;8365;51.030;4.696;2023-06-24T14:57:59;41.55;18.38
16505;HTU21D;8365;51.030;4.696;2023-06-24T15:00:29;41.73;18.53
16505;HTU21D;8365;51.030;4.696;2023-06-24T15:03:02;41.72;18.01
16505;HTU21D;8365;51.030;4.696;2023-06-24T15:05:35;41.91;17.75
16505;HTU21D;8365;51.030;4.696;2023-06-24T15:08:05;41.56;20.27
16505;HTU21D;8365;51.030;4.696;2023-06-24T15:10:36;41.69;20.14
16505;HTU21D;8365;51.030;4.696;2023-06-24T15:13:06;41.18;20.24
16505;HTU21D;8365;51.030;4.696;2023-06-24T15:15:39;41.56;20.42
16505;HTU21D;8365;51.030;4.696;2023-06-24T15:18:13;41.75;17.66
16505;HTU21D;8365;51.030;4.696;2023-06-24T15:20:45;39.82;19.18
16505;HTU21D;8365;51.030;4.696;2023-06-24T15:23:15;40.53;17.76
16505;HTU21D;8365;51.030;4.696;2023-06-24T15:25:45;39.98;17.90
16505;HTU21D;8365;51.030;4.696;2023-06-24T15:28:16;39.86;20.49
16505;HTU21D;8365;51.030;4.696;2023-06-24T15:30:46;39.73;18.61
16505;HTU21D;8365;51.030;4.696;2023-06-24T15:33:17;40.45;18.89
16505;HTU21D;8365;51.030;4.696;2023-06-24T15:35:48;40.41;19.38
16505;HTU21D;8365;51.030;4.696;2023-06-24T15:38:20;40.37;19.34
16505;HTU21D;8365;51.030;4.696;2023-06-24T15:40:51;39.33;20.09
16505;HTU21D;8365;51.030;4.696;2023-06-24T15:43:21;39.71;20.05
16505;HTU21D;8365;51.030;4.696;2023-06-24T15:45:56;40.21;20.86
16505;HTU21D;8365;51.030;4.696;2023-06-24T15:48:27;40.36;21.11
16505;HTU21D;8365;51.030;4.696;2023-06-24T15:50:57;40.21;20.38
16505;HTU21D;8365;51.030;4.696;2023-06-24T15:53:29;40.83;20.47
16505;HTU21D;8365;51.030;4.696;2023-06-24T15:56:00;40.85;19.41
16505;HTU21D;8365;51.030;4.696;2023-06-24T15:58:30;41.01;19.98
16505;HTU21D;8365;51.030;4.696;2023-06-24T16:01:01;40.46;20.60
16505;HTU21D;8365;51.030;4.696;2023-06-24T16:03:32;39.96;19.93
16505;HTU21D;8365;51.030;4.696;2023-06-24T16:06:02;38.97;21.87
16505;HTU21D;8365;51.030;4.696;2023-06-24T16:08:33;39.03;21.33